sensor_id;sensor_type;location;lat;lon;timestamp;P1;durP1;ratioP1;P2;durP2;ratioP2
13335;SDS011;6737;51.480;11.962;2022-09-09T00:04:40;2.83;;;1.73;;
13335;SDS011;6737;51.480;11.962;2022-09-09T00:07:12;6.40;;;1.40;;
13335;SDS011;6737;51.480;11.962;2022-09-09T00:12:34;4.93;;;1.40;;
13335;SDS011;6737;51.480;11.962;2022-09-09T00:15:12;4.53;;;1.67;;
13335;SDS011;6737;51.480;11.962;2022-09-09T00:17:49;4.10;;;1.50;;
13335;SDS011;6737;51.480;11.962;2022-09-09T00:20:57;2.67;;;1.40;;
13335;SDS011;6737;51.480;11.962;2022-09-09T00:23:40;3.15;;;1.40;;
13335;SDS011;6737;51.480;11.962;2022-09-09T00:26:35;3.43;;;1.57;;
13335;SDS011;6737;51.480;11.962;2022-09-09T00:29:14;4.83;;;1.40;;
13335;SDS011;6737;51.480;11.962;2022-09-09T00:32:05;6.03;;;1.40;;
13335;SDS011;6737;51.480;11.962;2022-09-09T00:34:47;3.30;;;1.17;;
13335;SDS011;6737;51.480;11.962;2022-09-09T00:37:20;2.03;;;1.10;;
13335;SDS011;6737;51.480;11.962;2022-09-09T00:39:47;4.77;;;1.40;;
13335;SDS011;6737;51.480;11.962;2022-09-09T00:42:18;3.90;;;1.33;;
13335;SDS011;6737;51.480;11.962;2022-09-09T00:45:01;3.40;;;1.27;;
13335;SDS011;6737;51.480;11.962;2022-09-09T00:47:50;1.90;;;1.13;;
13335;SDS011;6737;51.480;11.962;2022-09-09T00:55:53;2.83;;;1.20;;
13335;SDS011;6737;51.480;11.962;2022-09-09T00:58:42;2.20;;;1.30;;
13335;SDS011;6737;51.480;11.962;2022-09-09T01:01:10;2.50;;;1.50;;
13335;SDS011;6737;51.480;11.962;2022-09-09T01:03:43;3.20;;;1.20;;
13335;SDS011;6737;51.480;11.962;2022-09-09T01:06:25;1.90;;;1.20;;
13335;SDS011;6737;51.480;11.962;2022-09-09T01:14:44;2.83;;;1.70;;
13335;SDS011;6737;51.480;11.962;2022-09-09T01:17:21;2.07;;;1.30;;
13335;SDS011;6737;51.480;11.962;2022-09-09T01:20:20;1.97;;;1.27;;
13335;SDS011;6737;51.480;11.962;2022-09-09T01:28:36;2.17;;;1.33;;
13335;SDS011;6737;51.480;11.962;2022-09-09T01:31:06;3.37;;;1.40;;
13335;SDS011;6737;51.480;11.962;2022-09-09T01:33:34;3.70;;;1.40;;
13335;SDS011;6737;51.480;11.962;2022-09-09T01:38:34;3.07;;;1.43;;
13335;SDS011;6737;51.480;11.962;2022-09-09T01:41:02;2.63;;;1.30;;
13335;SDS011;6737;51.480;11.962;2022-09-09T01:43:28;4.03;;;1.30;;
13335;SDS011;6737;51.480;11.962;2022-09-09T01:45:55;3.10;;;1.40;;
13335;SDS011;6737;51.480;11.962;2022-09-09T01:48:24;1.63;;;1.20;;
13335;SDS011;6737;51.480;11.962;2022-09-09T01:50:50;3.77;;;1.50;;
13335;SDS011;6737;51.480;11.962;2022-09-09T01:53:17;3.83;;;1.30;;
13335;SDS011;6737;51.480;11.962;2022-09-09T01:55:59;2.80;;;1.30;;
13335;SDS011;6737;51.480;11.962;2022-09-09T02:01:27;5.23;;;1.50;;
13335;SDS011;6737;51.480;11.962;2022-09-09T02:04:12;2.50;;;1.10;;
13335;SDS011;6737;51.480;11.962;2022-09-09T02:06:51;3.83;;;1.47;;
13335;SDS011;6737;51.480;11.962;2022-09-09T02:09:22;5.47;;;1.30;;
13335;SDS011;6737;51.480;11.962;2022-09-09T02:11:51;3.40;;;1.37;;
13335;SDS011;6737;51.480;11.962;2022-09-09T02:14:27;2.73;;;1.40;;
13335;SDS011;6737;51.480;11.962;2022-09-09T02:17:01;3.87;;;1.50;;
13335;SDS011;6737;51.480;11.962;2022-09-09T02:19:51;2.47;;;1.57;;
13335;SDS011;6737;51.480;11.962;2022-09-09T02:22:22;3.73;;;1.60;;
13335;SDS011;6737;51.480;11.962;2022-09-09T02:24:51;5.10;;;1.50;;
13335;SDS011;6737;51.480;11.962;2022-09-09T02:27:20;6.83;;;1.50;;
13335;SDS011;6737;51.480;11.962;2022-09-09T02:29:48;3.23;;;1.40;;
13335;SDS011;6737;51.480;11.962;2022-09-09T02:32:20;3.83;;;1.47;;
13335;SDS011;6737;51.480;11.962;2022-09-09T02:34:49;3.77;;;1.37;;
13335;SDS011;6737;51.480;11.962;2022-09-09T02:37:23;3.97;;;1.50;;
13335;SDS011;6737;51.480;11.962;2022-09-09T02:39:54;2.20;;;1.30;;
13335;SDS011;6737;51.480;11.962;2022-09-09T02:42:20;3.67;;;1.60;;
13335;SDS011;6737;51.480;11.962;2022-09-09T02:44:46;3.43;;;1.37;;
13335;SDS011;6737;51.480;11.962;2022-09-09T02:47:25;4.40;;;1.70;;
13335;SDS011;6737;51.480;11.962;2022-09-09T02:53:16;3.70;;;1.50;;
13335;SDS011;6737;51.480;11.962;2022-09-09T02:58:14;4.67;;;1.30;;
13335;SDS011;6737;51.480;11.962;2022-09-09T03:00:42;3.17;;;1.77;;
13335;SDS011;6737;51.480;11.962;2022-09-09T03:03:11;3.23;;;1.43;;
13335;SDS011;6737;51.480;11.962;2022-09-09T03:05:37;5.03;;;1.33;;
13335;SDS011;6737;51.480;11.962;2022-09-09T03:08:04;2.53;;;1.70;;
13335;SDS011;6737;51.480;11.962;2022-09-09T03:10:31;5.07;;;1.70;;
13335;SDS011;6737;51.480;11.962;2022-09-09T03:12:58;3.97;;;1.43;;
13335;SDS011;6737;51.480;11.962;2022-09-09T03:15:24;4.47;;;1.60;;
13335;SDS011;6737;51.480;11.962;2022-09-09T03:17:55;3.80;;;1.70;;
13335;SDS011;6737;51.480;11.962;2022-09-09T03:20:25;4.27;;;1.70;;
13335;SDS011;6737;51.480;11.962;2022-09-09T03:22:53;4.23;;;1.60;;
13335;SDS011;6737;51.480;11.962;2022-09-09T03:25:19;4.33;;;1.70;;
13335;SDS011;6737;51.480;11.962;2022-09-09T03:27:48;6.77;;;1.60;;
13335;SDS011;6737;51.480;11.962;2022-09-09T03:30:14;3.37;;;1.43;;
13335;SDS011;6737;51.480;11.962;2022-09-09T03:32:41;2.50;;;1.63;;
13335;SDS011;6737;51.480;11.962;2022-09-09T03:35:06;3.20;;;1.60;;
13335;SDS011;6737;51.480;11.962;2022-09-09T03:37:33;2.30;;;1.50;;
13335;SDS011;6737;51.480;11.962;2022-09-09T03:39:59;4.80;;;1.80;;
13335;SDS011;6737;51.480;11.962;2022-09-09T03:42:25;3.20;;;1.70;;
13335;SDS011;6737;51.480;11.962;2022-09-09T03:44:50;5.40;;;2.00;;
13335;SDS011;6737;51.480;11.962;2022-09-09T03:47:17;4.43;;;2.07;;
13335;SDS011;6737;51.480;11.962;2022-09-09T03:49:44;3.90;;;2.00;;
13335;SDS011;6737;51.480;11.962;2022-09-09T03:52:10;5.00;;;2.30;;
13335;SDS011;6737;51.480;11.962;2022-09-09T03:54:36;5.33;;;2.40;;
13335;SDS011;6737;51.480;11.962;2022-09-09T03:57:02;5.87;;;2.50;;
13335;SDS011;6737;51.480;11.962;2022-09-09T03:59:30;6.70;;;2.97;;
13335;SDS011;6737;51.480;11.962;2022-09-09T04:01:55;6.87;;;2.83;;
13335;SDS011;6737;51.480;11.962;2022-09-09T04:04:24;6.07;;;2.53;;
13335;SDS011;6737;51.480;11.962;2022-09-09T04:06:51;5.20;;;2.53;;
13335;SDS011;6737;51.480;11.962;2022-09-09T04:09:18;4.23;;;2.27;;
13335;SDS011;6737;51.480;11.962;2022-09-09T04:11:44;6.00;;;2.50;;
13335;SDS011;6737;51.480;11.962;2022-09-09T04:14:10;4.97;;;2.40;;
13335;SDS011;6737;51.480;11.962;2022-09-09T04:16:37;5.53;;;2.57;;
13335;SDS011;6737;51.480;11.962;2022-09-09T04:19:04;6.03;;;2.60;;
13335;SDS011;6737;51.480;11.962;2022-09-09T04:21:32;7.30;;;2.40;;
13335;SDS011;6737;51.480;11.962;2022-09-09T04:23:57;6.90;;;2.43;;
13335;SDS011;6737;51.480;11.962;2022-09-09T04:26:23;7.37;;;2.63;;
13335;SDS011;6737;51.480;11.962;2022-09-09T04:28:49;5.77;;;2.23;;
13335;SDS011;6737;51.480;11.962;2022-09-09T04:31:19;5.40;;;2.00;;
13335;SDS011;6737;51.480;11.962;2022-09-09T04:33:48;3.17;;;1.90;;
13335;SDS011;6737;51.480;11.962;2022-09-09T04:36:15;3.60;;;2.22;;
13335;SDS011;6737;51.480;11.962;2022-09-09T04:38:41;3.53;;;1.97;;
13335;SDS011;6737;51.480;11.962;2022-09-09T04:41:07;3.47;;;1.90;;
13335;SDS011;6737;51.480;11.962;2022-09-09T04:43:33;4.67;;;2.10;;
13335;SDS011;6737;51.480;11.962;2022-09-09T04:45:59;5.87;;;2.30;;
13335;SDS011;6737;51.480;11.962;2022-09-09T04:48:25;3.53;;;1.93;;
13335;SDS011;6737;51.480;11.962;2022-09-09T04:50:54;5.67;;;2.40;;
13335;SDS011;6737;51.480;11.962;2022-09-09T04:53:24;3.53;;;2.00;;
13335;SDS011;6737;51.480;11.962;2022-09-09T04:55:51;2.27;;;1.80;;
13335;SDS011;6737;51.480;11.962;2022-09-09T04:58:26;4.50;;;2.23;;
13335;SDS011;6737;51.480;11.962;2022-09-09T05:00:52;3.37;;;1.90;;
13335;SDS011;6737;51.480;11.962;2022-09-09T05:03:17;4.00;;;2.50;;
13335;SDS011;6737;51.480;11.962;2022-09-09T05:05:44;3.53;;;2.10;;
13335;SDS011;6737;51.480;11.962;2022-09-09T05:08:10;5.05;;;2.10;;
13335;SDS011;6737;51.480;11.962;2022-09-09T05:10:36;6.07;;;2.60;;
13335;SDS011;6737;51.480;11.962;2022-09-09T05:13:04;6.20;;;2.47;;
13335;SDS011;6737;51.480;11.962;2022-09-09T05:15:30;6.00;;;2.40;;
13335;SDS011;6737;51.480;11.962;2022-09-09T05:17:59;5.30;;;2.70;;
13335;SDS011;6737;51.480;11.962;2022-09-09T05:20:27;4.17;;;2.50;;
13335;SDS011;6737;51.480;11.962;2022-09-09T05:22:54;6.23;;;2.50;;
13335;SDS011;6737;51.480;11.962;2022-09-09T05:25:21;8.10;;;2.72;;
13335;SDS011;6737;51.480;11.962;2022-09-09T05:27:51;9.17;;;3.20;;
13335;SDS011;6737;51.480;11.962;2022-09-09T05:30:19;5.53;;;3.07;;
13335;SDS011;6737;51.480;11.962;2022-09-09T05:32:45;8.13;;;3.60;;
13335;SDS011;6737;51.480;11.962;2022-09-09T05:35:12;5.03;;;3.30;;
13335;SDS011;6737;51.480;11.962;2022-09-09T05:37:38;5.60;;;3.60;;
13335;SDS011;6737;51.480;11.962;2022-09-09T05:40:05;9.30;;;3.25;;
13335;SDS011;6737;51.480;11.962;2022-09-09T05:42:31;11.65;;;3.20;;
13335;SDS011;6737;51.480;11.962;2022-09-09T05:44:57;5.78;;;3.10;;
13335;SDS011;6737;51.480;11.962;2022-09-09T05:47:23;5.47;;;2.70;;
13335;SDS011;6737;51.480;11.962;2022-09-09T05:49:49;5.55;;;2.47;;
13335;SDS011;6737;51.480;11.962;2022-09-09T05:52:15;6.47;;;2.70;;
13335;SDS011;6737;51.480;11.962;2022-09-09T05:54:41;4.18;;;2.15;;
13335;SDS011;6737;51.480;11.962;2022-09-09T05:57:08;5.32;;;2.08;;
13335;SDS011;6737;51.480;11.962;2022-09-09T05:59:33;4.93;;;2.10;;
13335;SDS011;6737;51.480;11.962;2022-09-09T06:01:59;6.78;;;2.17;;
13335;SDS011;6737;51.480;11.962;2022-09-09T06:04:25;6.40;;;2.05;;
13335;SDS011;6737;51.480;11.962;2022-09-09T06:06:51;5.00;;;1.90;;
13335;SDS011;6737;51.480;11.962;2022-09-09T06:09:17;4.00;;;2.20;;
13335;SDS011;6737;51.480;11.962;2022-09-09T06:11:42;3.97;;;2.22;;
13335;SDS011;6737;51.480;11.962;2022-09-09T06:14:08;5.53;;;2.17;;
13335;SDS011;6737;51.480;11.962;2022-09-09T06:16:35;4.85;;;2.28;;
13335;SDS011;6737;51.480;11.962;2022-09-09T06:19:02;6.33;;;2.20;;
13335;SDS011;6737;51.480;11.962;2022-09-09T06:21:29;6.88;;;2.42;;
13335;SDS011;6737;51.480;11.962;2022-09-09T06:23:57;5.60;;;2.30;;
13335;SDS011;6737;51.480;11.962;2022-09-09T06:26:25;5.32;;;2.42;;
13335;SDS011;6737;51.480;11.962;2022-09-09T06:28:59;6.80;;;2.20;;
13335;SDS011;6737;51.480;11.962;2022-09-09T06:31:29;7.07;;;2.50;;
13335;SDS011;6737;51.480;11.962;2022-09-09T06:33:59;6.17;;;2.17;;
13335;SDS011;6737;51.480;11.962;2022-09-09T06:36:33;6.45;;;2.30;;
13335;SDS011;6737;51.480;11.962;2022-09-09T06:39:02;5.43;;;2.10;;
13335;SDS011;6737;51.480;11.962;2022-09-09T06:41:29;7.32;;;2.30;;
13335;SDS011;6737;51.480;11.962;2022-09-09T06:43:56;6.50;;;2.08;;
13335;SDS011;6737;51.480;11.962;2022-09-09T06:46:23;5.27;;;2.07;;
13335;SDS011;6737;51.480;11.962;2022-09-09T06:48:55;3.35;;;1.83;;
13335;SDS011;6737;51.480;11.962;2022-09-09T06:51:25;5.75;;;2.13;;
13335;SDS011;6737;51.480;11.962;2022-09-09T06:53:56;4.07;;;1.60;;
13335;SDS011;6737;51.480;11.962;2022-09-09T06:58:56;4.20;;;1.52;;
13335;SDS011;6737;51.480;11.962;2022-09-09T07:01:28;6.00;;;1.63;;
13335;SDS011;6737;51.480;11.962;2022-09-09T07:03:57;3.63;;;1.50;;
13335;SDS011;6737;51.480;11.962;2022-09-09T07:06:27;3.03;;;1.27;;
13335;SDS011;6737;51.480;11.962;2022-09-09T07:08:56;5.13;;;1.50;;
13335;SDS011;6737;51.480;11.962;2022-09-09T07:11:27;4.47;;;1.77;;
13335;SDS011;6737;51.480;11.962;2022-09-09T07:13:56;4.47;;;1.50;;
13335;SDS011;6737;51.480;11.962;2022-09-09T07:16:24;2.65;;;1.38;;
13335;SDS011;6737;51.480;11.962;2022-09-09T07:18:51;5.68;;;1.50;;
13335;SDS011;6737;51.480;11.962;2022-09-09T07:21:17;4.07;;;1.50;;
13335;SDS011;6737;51.480;11.962;2022-09-09T07:23:45;4.13;;;1.30;;
13335;SDS011;6737;51.480;11.962;2022-09-09T07:26:18;4.82;;;1.55;;
13335;SDS011;6737;51.480;11.962;2022-09-09T07:28:46;4.03;;;1.40;;
13335;SDS011;6737;51.480;11.962;2022-09-09T07:31:13;3.95;;;1.40;;
13335;SDS011;6737;51.480;11.962;2022-09-09T07:33:45;2.92;;;1.38;;
13335;SDS011;6737;51.480;11.962;2022-09-09T07:38:40;2.33;;;1.33;;
13335;SDS011;6737;51.480;11.962;2022-09-09T07:41:12;4.35;;;1.70;;
13335;SDS011;6737;51.480;11.962;2022-09-09T07:43:45;3.92;;;1.30;;
13335;SDS011;6737;51.480;11.962;2022-09-09T07:46:13;4.70;;;1.38;;
13335;SDS011;6737;51.480;11.962;2022-09-09T07:48:52;2.22;;;1.10;;
13335;SDS011;6737;51.480;11.962;2022-09-09T07:51:21;4.10;;;1.10;;
13335;SDS011;6737;51.480;11.962;2022-09-09T07:53:51;1.25;;;1.00;;
13335;SDS011;6737;51.480;11.962;2022-09-09T07:56:23;1.80;;;1.10;;
13335;SDS011;6737;51.480;11.962;2022-09-09T07:58:52;5.13;;;1.20;;
13335;SDS011;6737;51.480;11.962;2022-09-09T08:01:20;4.50;;;1.30;;
13335;SDS011;6737;51.480;11.962;2022-09-09T08:03:55;6.15;;;1.38;;
13335;SDS011;6737;51.480;11.962;2022-09-09T08:06:27;3.58;;;1.40;;
13335;SDS011;6737;51.480;11.962;2022-09-09T08:08:54;4.03;;;1.40;;
13335;SDS011;6737;51.480;11.962;2022-09-09T08:11:21;3.20;;;1.27;;
13335;SDS011;6737;51.480;11.962;2022-09-09T08:13:49;5.93;;;1.70;;
13335;SDS011;6737;51.480;11.962;2022-09-09T08:16:17;2.65;;;1.20;;
13335;SDS011;6737;51.480;11.962;2022-09-09T08:18:50;7.28;;;1.40;;
13335;SDS011;6737;51.480;11.962;2022-09-09T08:21:23;5.63;;;1.40;;
13335;SDS011;6737;51.480;11.962;2022-09-09T08:23:52;2.85;;;1.20;;
13335;SDS011;6737;51.480;11.962;2022-09-09T08:26:24;4.28;;;1.33;;
13335;SDS011;6737;51.480;11.962;2022-09-09T08:28:53;4.45;;;1.40;;
13335;SDS011;6737;51.480;11.962;2022-09-09T08:31:23;3.30;;;1.30;;
13335;SDS011;6737;51.480;11.962;2022-09-09T08:33:53;5.20;;;1.13;;
13335;SDS011;6737;51.480;11.962;2022-09-09T08:36:21;3.88;;;1.23;;
13335;SDS011;6737;51.480;11.962;2022-09-09T08:38:51;4.63;;;1.33;;
13335;SDS011;6737;51.480;11.962;2022-09-09T08:43:48;4.15;;;1.38;;
13335;SDS011;6737;51.480;11.962;2022-09-09T08:46:24;3.08;;;1.10;;
13335;SDS011;6737;51.480;11.962;2022-09-09T08:49:02;3.80;;;1.23;;
13335;SDS011;6737;51.480;11.962;2022-09-09T08:51:41;4.38;;;1.17;;
13335;SDS011;6737;51.480;11.962;2022-09-09T08:54:07;5.18;;;1.35;;
13335;SDS011;6737;51.480;11.962;2022-09-09T08:56:35;7.45;;;1.23;;
13335;SDS011;6737;51.480;11.962;2022-09-09T08:59:02;4.63;;;1.27;;
13335;SDS011;6737;51.480;11.962;2022-09-09T09:09:50;4.95;;;1.10;;
13335;SDS011;6737;51.480;11.962;2022-09-09T09:12:38;2.38;;;1.10;;
13335;SDS011;6737;51.480;11.962;2022-09-09T09:15:14;4.45;;;1.30;;
13335;SDS011;6737;51.480;11.962;2022-09-09T09:17:46;2.95;;;1.10;;
13335;SDS011;6737;51.480;11.962;2022-09-09T09:20:14;4.20;;;1.38;;
13335;SDS011;6737;51.480;11.962;2022-09-09T09:22:48;2.92;;;1.15;;
13335;SDS011;6737;51.480;11.962;2022-09-09T09:25:35;4.65;;;1.20;;
13335;SDS011;6737;51.480;11.962;2022-09-09T09:31:03;4.93;;;1.45;;
13335;SDS011;6737;51.480;11.962;2022-09-09T09:36:06;2.63;;;1.25;;
13335;SDS011;6737;51.480;11.962;2022-09-09T09:38:35;3.83;;;1.30;;
13335;SDS011;6737;51.480;11.962;2022-09-09T09:41:02;5.13;;;1.40;;
13335;SDS011;6737;51.480;11.962;2022-09-09T09:43:30;3.78;;;1.33;;
13335;SDS011;6737;51.480;11.962;2022-09-09T09:46:00;2.58;;;1.20;;
13335;SDS011;6737;51.480;11.962;2022-09-09T09:48:29;4.80;;;1.58;;
13335;SDS011;6737;51.480;11.962;2022-09-09T09:51:03;5.18;;;1.35;;
13335;SDS011;6737;51.480;11.962;2022-09-09T09:53:36;4.72;;;1.20;;
13335;SDS011;6737;51.480;11.962;2022-09-09T09:56:05;2.95;;;1.23;;
13335;SDS011;6737;51.480;11.962;2022-09-09T10:01:20;9.27;;;1.65;;
13335;SDS011;6737;51.480;11.962;2022-09-09T10:04:14;3.70;;;1.20;;
13335;SDS011;6737;51.480;11.962;2022-09-09T10:06:47;2.45;;;1.13;;
13335;SDS011;6737;51.480;11.962;2022-09-09T10:09:25;2.25;;;1.30;;
13335;SDS011;6737;51.480;11.962;2022-09-09T10:19:55;4.45;;;1.55;;
13335;SDS011;6737;51.480;11.962;2022-09-09T10:22:46;4.90;;;1.35;;
13335;SDS011;6737;51.480;11.962;2022-09-09T10:25:20;4.05;;;1.35;;
13335;SDS011;6737;51.480;11.962;2022-09-09T10:28:47;4.13;;;1.30;;
13335;SDS011;6737;51.480;11.962;2022-09-09T10:33:56;4.22;;;1.33;;
13335;SDS011;6737;51.480;11.962;2022-09-09T10:36:26;5.40;;;1.13;;
13335;SDS011;6737;51.480;11.962;2022-09-09T10:38:57;4.50;;;1.20;;
13335;SDS011;6737;51.480;11.962;2022-09-09T10:41:39;4.82;;;1.33;;
13335;SDS011;6737;51.480;11.962;2022-09-09T10:55:27;9.13;;;1.92;;
13335;SDS011;6737;51.480;11.962;2022-09-09T10:58:01;4.80;;;1.45;;
13335;SDS011;6737;51.480;11.962;2022-09-09T11:00:39;6.10;;;1.63;;
13335;SDS011;6737;51.480;11.962;2022-09-09T11:03:29;5.22;;;1.42;;
13335;SDS011;6737;51.480;11.962;2022-09-09T11:06:04;5.80;;;1.55;;
13335;SDS011;6737;51.480;11.962;2022-09-09T11:08:36;5.10;;;1.33;;
13335;SDS011;6737;51.480;11.962;2022-09-09T11:19:12;3.63;;;1.40;;
13335;SDS011;6737;51.480;11.962;2022-09-09T11:21:56;3.00;;;1.17;;
13335;SDS011;6737;51.480;11.962;2022-09-09T11:30:20;2.90;;;1.25;;
13335;SDS011;6737;51.480;11.962;2022-09-09T11:38:29;4.72;;;1.48;;
13335;SDS011;6737;51.480;11.962;2022-09-09T11:41:07;3.05;;;1.10;;
13335;SDS011;6737;51.480;11.962;2022-09-09T11:46:06;3.83;;;1.20;;
13335;SDS011;6737;51.480;11.962;2022-09-09T11:48:40;2.38;;;1.15;;
13335;SDS011;6737;51.480;11.962;2022-09-09T11:53:58;4.28;;;1.02;;
13335;SDS011;6737;51.480;11.962;2022-09-09T11:56:31;4.38;;;1.08;;
13335;SDS011;6737;51.480;11.962;2022-09-09T12:01:34;6.40;;;1.30;;
13335;SDS011;6737;51.480;11.962;2022-09-09T12:04:12;3.10;;;1.25;;
13335;SDS011;6737;51.480;11.962;2022-09-09T12:06:46;3.15;;;1.20;;
13335;SDS011;6737;51.480;11.962;2022-09-09T12:17:23;6.72;;;1.50;;
13335;SDS011;6737;51.480;11.962;2022-09-09T12:22:40;2.92;;;1.08;;
13335;SDS011;6737;51.480;11.962;2022-09-09T12:31:10;3.03;;;1.30;;
13335;SDS011;6737;51.480;11.962;2022-09-09T12:33:48;3.13;;;1.10;;
13335;SDS011;6737;51.480;11.962;2022-09-09T12:36:34;3.33;;;1.20;;
13335;SDS011;6737;51.480;11.962;2022-09-09T12:39:09;4.20;;;1.40;;
13335;SDS011;6737;51.480;11.962;2022-09-09T12:41:52;3.72;;;1.30;;
13335;SDS011;6737;51.480;11.962;2022-09-09T12:44:22;2.25;;;1.10;;
13335;SDS011;6737;51.480;11.962;2022-09-09T12:46:53;4.80;;;1.30;;
13335;SDS011;6737;51.480;11.962;2022-09-09T12:49:32;4.45;;;1.33;;
13335;SDS011;6737;51.480;11.962;2022-09-09T12:52:03;3.10;;;1.05;;
13335;SDS011;6737;51.480;11.962;2022-09-09T12:54:33;3.20;;;1.42;;
13335;SDS011;6737;51.480;11.962;2022-09-09T12:57:01;2.80;;;1.10;;
13335;SDS011;6737;51.480;11.962;2022-09-09T12:59:35;2.47;;;1.10;;
13335;SDS011;6737;51.480;11.962;2022-09-09T13:05:14;3.13;;;1.15;;
13335;SDS011;6737;51.480;11.962;2022-09-09T13:07:42;3.78;;;0.93;;
13335;SDS011;6737;51.480;11.962;2022-09-09T13:10:12;3.03;;;1.05;;
13335;SDS011;6737;51.480;11.962;2022-09-09T13:12:38;3.55;;;1.15;;
13335;SDS011;6737;51.480;11.962;2022-09-09T13:15:11;3.47;;;1.15;;
13335;SDS011;6737;51.480;11.962;2022-09-09T13:18:02;5.80;;;1.30;;
13335;SDS011;6737;51.480;11.962;2022-09-09T13:20:32;4.07;;;1.35;;
13335;SDS011;6737;51.480;11.962;2022-09-09T13:22:57;3.25;;;1.13;;
13335;SDS011;6737;51.480;11.962;2022-09-09T13:25:24;2.65;;;1.02;;
13335;SDS011;6737;51.480;11.962;2022-09-09T13:28:04;1.65;;;0.80;;
13335;SDS011;6737;51.480;11.962;2022-09-09T13:30:54;3.15;;;1.10;;
13335;SDS011;6737;51.480;11.962;2022-09-09T13:33:28;2.75;;;1.00;;
13335;SDS011;6737;51.480;11.962;2022-09-09T13:35:59;3.40;;;0.98;;
13335;SDS011;6737;51.480;11.962;2022-09-09T13:38:28;3.88;;;1.23;;
13335;SDS011;6737;51.480;11.962;2022-09-09T13:41:01;3.13;;;1.10;;
13335;SDS011;6737;51.480;11.962;2022-09-09T13:43:42;2.28;;;1.00;;
13335;SDS011;6737;51.480;11.962;2022-09-09T13:51:36;3.55;;;1.20;;
13335;SDS011;6737;51.480;11.962;2022-09-09T13:54:04;1.50;;;0.88;;
13335;SDS011;6737;51.480;11.962;2022-09-09T13:56:35;4.88;;;1.13;;
13335;SDS011;6737;51.480;11.962;2022-09-09T13:59:03;3.33;;;1.02;;
13335;SDS011;6737;51.480;11.962;2022-09-09T14:01:30;5.40;;;1.20;;
13335;SDS011;6737;51.480;11.962;2022-09-09T14:03:56;3.28;;;1.20;;
13335;SDS011;6737;51.480;11.962;2022-09-09T14:06:23;4.63;;;1.25;;
13335;SDS011;6737;51.480;11.962;2022-09-09T14:08:49;1.67;;;0.90;;
13335;SDS011;6737;51.480;11.962;2022-09-09T14:11:16;3.97;;;1.10;;
13335;SDS011;6737;51.480;11.962;2022-09-09T14:13:43;3.20;;;1.02;;
13335;SDS011;6737;51.480;11.962;2022-09-09T14:16:09;3.45;;;1.13;;
13335;SDS011;6737;51.480;11.962;2022-09-09T14:18:35;2.78;;;1.10;;
13335;SDS011;6737;51.480;11.962;2022-09-09T14:21:02;3.28;;;1.10;;
13335;SDS011;6737;51.480;11.962;2022-09-09T14:23:28;4.20;;;1.10;;
13335;SDS011;6737;51.480;11.962;2022-09-09T14:25:54;2.40;;;1.05;;
13335;SDS011;6737;51.480;11.962;2022-09-09T14:28:21;3.53;;;1.05;;
13335;SDS011;6737;51.480;11.962;2022-09-09T14:30:47;2.35;;;0.90;;
13335;SDS011;6737;51.480;11.962;2022-09-09T14:33:14;2.75;;;1.00;;
13335;SDS011;6737;51.480;11.962;2022-09-09T14:35:41;1.58;;;0.77;;
13335;SDS011;6737;51.480;11.962;2022-09-09T14:38:07;2.13;;;0.88;;
13335;SDS011;6737;51.480;11.962;2022-09-09T14:40:35;2.50;;;0.82;;
13335;SDS011;6737;51.480;11.962;2022-09-09T14:43:02;3.15;;;0.70;;
13335;SDS011;6737;51.480;11.962;2022-09-09T14:45:28;2.30;;;0.80;;
13335;SDS011;6737;51.480;11.962;2022-09-09T14:47:55;2.05;;;0.75;;
13335;SDS011;6737;51.480;11.962;2022-09-09T14:50:21;1.63;;;0.80;;
13335;SDS011;6737;51.480;11.962;2022-09-09T14:52:47;3.28;;;0.80;;
13335;SDS011;6737;51.480;11.962;2022-09-09T14:55:13;1.52;;;0.80;;
13335;SDS011;6737;51.480;11.962;2022-09-09T14:57:40;2.97;;;0.90;;
13335;SDS011;6737;51.480;11.962;2022-09-09T15:00:08;1.45;;;0.80;;
13335;SDS011;6737;51.480;11.962;2022-09-09T15:02:36;1.70;;;0.70;;
13335;SDS011;6737;51.480;11.962;2022-09-09T15:05:02;1.17;;;0.70;;
13335;SDS011;6737;51.480;11.962;2022-09-09T15:07:28;1.58;;;0.75;;
13335;SDS011;6737;51.480;11.962;2022-09-09T15:09:54;5.28;;;0.90;;
13335;SDS011;6737;51.480;11.962;2022-09-09T15:12:20;2.75;;;0.80;;
13335;SDS011;6737;51.480;11.962;2022-09-09T15:14:46;3.70;;;0.80;;
13335;SDS011;6737;51.480;11.962;2022-09-09T15:17:13;2.28;;;0.80;;
13335;SDS011;6737;51.480;11.962;2022-09-09T15:19:39;1.88;;;0.80;;
13335;SDS011;6737;51.480;11.962;2022-09-09T15:22:05;1.85;;;0.70;;
13335;SDS011;6737;51.480;11.962;2022-09-09T15:24:31;3.08;;;0.80;;
13335;SDS011;6737;51.480;11.962;2022-09-09T15:26:58;3.38;;;1.00;;
13335;SDS011;6737;51.480;11.962;2022-09-09T15:29:24;2.58;;;0.80;;
13335;SDS011;6737;51.480;11.962;2022-09-09T15:31:50;2.15;;;0.70;;
13335;SDS011;6737;51.480;11.962;2022-09-09T15:34:18;1.95;;;1.00;;
13335;SDS011;6737;51.480;11.962;2022-09-09T15:36:44;3.28;;;1.00;;
13335;SDS011;6737;51.480;11.962;2022-09-09T15:39:14;5.00;;;0.90;;
13335;SDS011;6737;51.480;11.962;2022-09-09T15:41:42;2.08;;;0.88;;
13335;SDS011;6737;51.480;11.962;2022-09-09T15:44:13;4.68;;;0.90;;
13335;SDS011;6737;51.480;11.962;2022-09-09T15:46:41;4.10;;;1.10;;
13335;SDS011;6737;51.480;11.962;2022-09-09T15:49:14;1.88;;;0.90;;
13335;SDS011;6737;51.480;11.962;2022-09-09T15:51:51;2.15;;;0.82;;
13335;SDS011;6737;51.480;11.962;2022-09-09T15:54:23;2.60;;;0.80;;
13335;SDS011;6737;51.480;11.962;2022-09-09T15:56:51;1.85;;;0.82;;
13335;SDS011;6737;51.480;11.962;2022-09-09T15:59:25;1.80;;;0.90;;
13335;SDS011;6737;51.480;11.962;2022-09-09T16:01:55;2.05;;;0.90;;
13335;SDS011;6737;51.480;11.962;2022-09-09T16:04:22;2.50;;;0.85;;
13335;SDS011;6737;51.480;11.962;2022-09-09T16:06:53;4.50;;;0.95;;
13335;SDS011;6737;51.480;11.962;2022-09-09T16:09:27;2.42;;;1.00;;
13335;SDS011;6737;51.480;11.962;2022-09-09T16:11:56;2.85;;;0.93;;
13335;SDS011;6737;51.480;11.962;2022-09-09T16:14:24;3.60;;;1.00;;
13335;SDS011;6737;51.480;11.962;2022-09-09T16:16:50;2.13;;;0.88;;
13335;SDS011;6737;51.480;11.962;2022-09-09T16:19:17;3.33;;;1.00;;
13335;SDS011;6737;51.480;11.962;2022-09-09T16:21:47;2.30;;;0.98;;
13335;SDS011;6737;51.480;11.962;2022-09-09T16:24:15;3.05;;;0.98;;
13335;SDS011;6737;51.480;11.962;2022-09-09T16:26:45;2.75;;;1.17;;
13335;SDS011;6737;51.480;11.962;2022-09-09T16:29:13;1.75;;;0.90;;
13335;SDS011;6737;51.480;11.962;2022-09-09T16:31:42;2.20;;;0.88;;
13335;SDS011;6737;51.480;11.962;2022-09-09T16:34:08;2.13;;;0.75;;
13335;SDS011;6737;51.480;11.962;2022-09-09T16:36:36;2.95;;;0.80;;
13335;SDS011;6737;51.480;11.962;2022-09-09T16:39:08;1.27;;;0.77;;
13335;SDS011;6737;51.480;11.962;2022-09-09T16:41:37;1.75;;;0.85;;
13335;SDS011;6737;51.480;11.962;2022-09-09T16:44:04;2.70;;;0.80;;
13335;SDS011;6737;51.480;11.962;2022-09-09T16:46:33;1.55;;;0.70;;
13335;SDS011;6737;51.480;11.962;2022-09-09T16:49:05;1.25;;;0.80;;
13335;SDS011;6737;51.480;11.962;2022-09-09T16:51:37;1.75;;;0.75;;
13335;SDS011;6737;51.480;11.962;2022-09-09T16:54:05;2.13;;;0.70;;
13335;SDS011;6737;51.480;11.962;2022-09-09T16:56:34;1.52;;;0.80;;
13335;SDS011;6737;51.480;11.962;2022-09-09T16:59:13;2.40;;;0.80;;
13335;SDS011;6737;51.480;11.962;2022-09-09T17:01:41;1.40;;;0.73;;
13335;SDS011;6737;51.480;11.962;2022-09-09T17:04:12;1.55;;;0.80;;
13335;SDS011;6737;51.480;11.962;2022-09-09T17:06:48;2.40;;;0.90;;
13335;SDS011;6737;51.480;11.962;2022-09-09T17:09:15;2.22;;;0.95;;
13335;SDS011;6737;51.480;11.962;2022-09-09T17:11:42;3.33;;;1.00;;
13335;SDS011;6737;51.480;11.962;2022-09-09T17:14:08;2.13;;;0.98;;
13335;SDS011;6737;51.480;11.962;2022-09-09T17:16:37;3.33;;;0.93;;
13335;SDS011;6737;51.480;11.962;2022-09-09T17:19:05;1.75;;;0.80;;
13335;SDS011;6737;51.480;11.962;2022-09-09T17:21:31;2.55;;;0.88;;